Overview Statistics Trail Chart Weather Telemetry Raw packets
 

This is the latest recevied weather packets stored in our database for station/object KG5APU. If no packets are shown the sender has not sent any weather packets the latest 10 day(s).

<< 28 29 30 31 32 33 34 >>
Time Temp. Humidity Pressure Rain* Wind** Luminosity Snow
1788209487 38.89° C 34% 1015.5 hPa 0 mm - 652 W/m² -
1788208886 38.33° C 35% 1015.6 hPa 0 mm - 660 W/m² -
1788208286 37.22° C 37% 1015.6 hPa 0 mm - 662 W/m² -
1788207685 37.78° C 35% 1015.7 hPa 0 mm - 679 W/m² -
1788207085 38.33° C 34% 1015.9 hPa 0 mm - 708 W/m² -
1788206481 38.33° C 32% 1016.1 hPa 0 mm - 733 W/m² -
1788205878 38.33° C 34% 1016.2 hPa 0 mm - 757 W/m² -
1788205274 38.33° C 35% 1016.4 hPa 0 mm - 748 W/m² -
1788204669 37.78° C 39% 1016.5 hPa 0 mm - 756 W/m² -
1788204066 37.78° C 40% 1016.7 hPa 0 mm - 764 W/m² -
1788203463 37.22° C 41% 1016.7 hPa 0 mm - 763 W/m² -
1788202862 37.22° C 41% 1017 hPa 0 mm - 769 W/m² -
1788202260 36.67° C 41% 1016.7 hPa 0 mm - 771 W/m² -
1788201655 36.67° C 41% 1017 hPa 0 mm - 778 W/m² -
1788201054 36.67° C 40% 1016.9 hPa 0 mm - 777 W/m² -
1788200450 36.67° C 42% 1017.4 hPa 0 mm - 778 W/m² -
1788199850 36.11° C 44% 1017.3 hPa 0 mm - 778 W/m² -
1788199246 36.11° C 43% 1017.6 hPa 0 mm - 773 W/m² -
1788198644 35.56° C 46% 1017.5 hPa 0 mm - 768 W/m² -
1788198044 36.11° C 44% 1017.9 hPa 0 mm - 761 W/m² -
1788197439 35.56° C 46% 1018.1 hPa 0 mm - 751 W/m² -
1788196834 35.56° C 46% 1018.1 hPa 0 mm - 740 W/m² -
1788196233 35.56° C 48% 1017.9 hPa 0 mm - 724 W/m² -
1788195631 35° C 47% 1018.4 hPa 0 mm - 709 W/m² -
1788195028 34.44° C 48% 1018.2 hPa 0 mm - 690 W/m² -

* Rain latest hour (hover to see other rain measurements)
** Current wind speed in m/s (hover to see current wind gust speed)